Time;durP1;ratioP1;P1;durP2;ratioP2;P2;SDS_P1;SDS_P2;PMS_P1;PMS_P2;Temp;Humidity;BMP_temperature;BMP_pressure;BME280_temperature;BME280_humidity;BME280_pressure;Samples;Min_cycle;Max_cycle;Signal;HPM_P1;HPM_P2
2022/09/14 00:00:17;;;;;;;;;;;17.30;99.90;;;;;;5052350;28;19924;-72
2022/09/14 00:02:49;;;;;;;;;;;17.30;99.90;;;;;;5042766;28;19974;-72
2022/09/14 00:05:20;;;;;;;;;;;17.30;99.90;;;;;;5072108;28;20276;-73
2022/09/14 00:07:52;;;;;;;;;;;17.30;99.90;;;;;;5054055;28;19951;-73
2022/09/14 00:10:23;;;;;;;;;;;17.30;99.90;;;;;;5063146;28;19928;-73
2022/09/14 00:12:55;;;;;;;;;;;17.40;99.90;;;;;;5055909;28;20403;-73
2022/09/14 00:15:27;;;;;;;;;;;17.30;99.90;;;;;;5080706;28;19978;-73
2022/09/14 00:17:58;;;;;;;;;;;17.40;99.90;;;;;;5091999;28;19924;-73
2022/09/14 00:20:30;;;;;;;;;;;17.30;99.90;;;;;;5074088;28;19935;-73
2022/09/14 00:23:02;;;;;;;;;;;17.30;99.90;;;;;;5085373;28;20452;-73
2022/09/14 00:25:34;;;;;;;;;;;17.30;99.90;;;;;;5056094;28;19955;-73
2022/09/14 00:28:05;;;;;;;;;;;17.20;99.90;;;;;;5056875;28;19993;-73
2022/09/14 00:30:40;;;;;;;;;;;17.30;99.90;;;;;;5034537;28;20342;-73
2022/09/14 00:33:12;;;;;;;;;;;17.30;99.90;;;;;;5054159;28;19924;-73
2022/09/14 00:35:43;;;;;;;;;;;17.30;99.90;;;;;;5082747;28;20337;-73
2022/09/14 00:38:15;;;;;;;;;;;17.30;99.90;;;;;;5049219;28;19924;-73
2022/09/14 00:40:55;;;;;;;;;;;17.30;99.90;;;;;;5083149;28;19928;-73
2022/09/14 00:43:22;;;;;;;;;;;17.30;99.90;;;;;;5079201;28;19924;-73
2022/09/14 00:45:53;;;;;;;;;;;17.30;99.90;;;;;;5079492;28;19983;-73
2022/09/14 00:48:25;;;;;;;;;;;17.20;99.90;;;;;;5054098;28;19929;-73
2022/09/14 00:50:57;;;;;;;;;;;17.30;99.90;;;;;;5088074;28;19924;-73
2022/09/14 00:53:29;;;;;;;;;;;17.30;99.90;;;;;;5094459;28;19990;-73
2022/09/14 00:56:01;;;;;;;;;;;17.30;99.90;;;;;;5076721;28;19925;-73
2022/09/14 00:58:32;;;;;;;;;;;17.30;99.90;;;;;;5057363;28;19924;-73
2022/09/14 01:01:01;;;;;;;;;;;17.20;99.90;;;;;;5074781;28;19928;-73
2022/09/14 01:03:32;;;;;;;;;;;17.20;99.90;;;;;;5057361;28;19925;-73
2022/09/14 01:06:19;;;;;;;;;;;17.20;99.90;;;;;;5056330;28;19980;-72
2022/09/14 01:08:54;;;;;;;;;;;17.20;99.90;;;;;;5053309;28;20383;-73
2022/09/14 01:11:42;;;;;;;;;;;17.20;99.90;;;;;;5054827;28;20291;-73
2022/09/14 01:14:17;;;;;;;;;;;17.20;99.90;;;;;;5058601;28;19928;-73
2022/09/14 01:16:57;;;;;;;;;;;17.10;99.90;;;;;;5046075;28;20342;-73
2022/09/14 01:19:30;;;;;;;;;;;17.20;99.90;;;;;;5052827;28;19978;-73
2022/09/14 01:22:06;;;;;;;;;;;17.20;99.90;;;;;;5051711;28;20940;-73
2022/09/14 01:24:45;;;;;;;;;;;17.20;99.90;;;;;;5057110;28;19973;-73
2022/09/14 01:27:39;;;;;;;;;;;17.20;99.90;;;;;;5071577;28;19982;-73
2022/09/14 01:30:13;;;;;;;;;;;17.20;99.90;;;;;;5056089;28;20011;-73
2022/09/14 01:33:08;;;;;;;;;;;17.20;99.90;;;;;;5040974;28;20394;-73
2022/09/14 01:35:37;;;;;;;;;;;17.20;99.90;;;;;;5054551;28;19933;-73
2022/09/14 01:38:11;;;;;;;;;;;17.20;99.90;;;;;;5084759;28;19928;-73
2022/09/14 01:40:48;;;;;;;;;;;17.20;99.90;;;;;;5079807;28;19979;-73
2022/09/14 01:43:19;;;;;;;;;;;17.20;99.90;;;;;;5039203;28;19994;-73
2022/09/14 01:46:09;;;;;;;;;;;17.20;99.90;;;;;;5056561;28;19938;-73
2022/09/14 01:48:49;;;;;;;;;;;17.20;99.90;;;;;;5020104;28;19979;-73
2022/09/14 01:51:27;;;;;;;;;;;17.30;99.90;;;;;;5069566;28;19973;-73
2022/09/14 01:54:06;;;;;;;;;;;17.30;99.90;;;;;;5074519;28;19978;-73
2022/09/14 01:56:40;;;;;;;;;;;17.20;99.90;;;;;;5062384;28;19947;-73
2022/09/14 01:59:14;;;;;;;;;;;17.20;99.90;;;;;;5056169;28;19926;-73
2022/09/14 02:01:48;;;;;;;;;;;17.20;99.90;;;;;;5060706;28;19970;-73
2022/09/14 02:04:39;;;;;;;;;;;17.20;99.90;;;;;;5077010;28;19925;-73
2022/09/14 02:07:06;;;;;;;;;;;17.20;99.90;;;;;;5085739;28;19924;-73
2022/09/14 02:09:38;;;;;;;;;;;17.20;99.90;;;;;;5069789;28;19978;-73
2022/09/14 02:12:05;;;;;;;;;;;17.20;99.90;;;;;;5073272;28;20395;-73
2022/09/14 02:14:36;;;;;;;;;;;17.20;99.90;;;;;;5057195;28;20457;-73
2022/09/14 02:17:08;;;;;;;;;;;17.20;99.90;;;;;;5080488;28;19924;-73
2022/09/14 02:19:43;;;;;;;;;;;17.20;99.90;;;;;;5072827;28;20367;-73
2022/09/14 02:22:14;;;;;;;;;;;17.20;99.90;;;;;;5083657;28;19932;-73
2022/09/14 02:24:46;;;;;;;;;;;17.20;99.90;;;;;;5062856;28;19948;-73
2022/09/14 02:27:18;;;;;;;;;;;17.20;99.90;;;;;;5058522;28;19947;-73
2022/09/14 02:29:50;;;;;;;;;;;17.20;99.90;;;;;;5054939;28;20721;-72
2022/09/14 02:32:24;;;;;;;;;;;17.20;99.90;;;;;;5077557;28;19925;-73
2022/09/14 02:34:56;;;;;;;;;;;17.20;99.90;;;;;;5049887;28;19975;-73
2022/09/14 02:37:34;;;;;;;;;;;17.30;99.90;;;;;;5054347;28;20390;-73
2022/09/14 02:40:08;;;;;;;;;;;17.30;99.90;;;;;;5077057;28;19924;-73
2022/09/14 02:42:53;;;;;;;;;;;17.30;99.90;;;;;;5071877;28;19937;-72
2022/09/14 02:45:31;;;;;;;;;;;17.20;99.90;;;;;;5078713;28;19970;-73
2022/09/14 02:47:57;;;;;;;;;;;17.30;99.90;;;;;;5055103;28;20454;-73
2022/09/14 02:50:34;;;;;;;;;;;17.20;99.90;;;;;;5074700;28;19948;-73
2022/09/14 02:53:15;;;;;;;;;;;17.20;99.90;;;;;;5035442;28;19925;-73
2022/09/14 02:55:50;;;;;;;;;;;17.20;99.90;;;;;;5035122;28;19925;-73
2022/09/14 02:58:21;;;;;;;;;;;17.20;99.90;;;;;;5062977;28;19924;-73
2022/09/14 03:00:53;;;;;;;;;;;17.20;99.90;;;;;;5072278;28;19978;-73
2022/09/14 03:03:25;;;;;;;;;;;17.20;99.90;;;;;;5063081;28;19928;-73
2022/09/14 03:05:51;;;;;;;;;;;17.10;99.90;;;;;;5058825;28;19954;-73
2022/09/14 03:08:24;;;;;;;;;;;17.10;99.90;;;;;;5079779;28;20371;-73
2022/09/14 03:10:55;;;;;;;;;;;17.10;99.90;;;;;;5075779;28;19962;-73
2022/09/14 03:13:27;;;;;;;;;;;17.10;99.90;;;;;;5053819;28;19924;-74
2022/09/14 03:16:03;;;;;;;;;;;17.00;99.90;;;;;;5050817;28;19925;-73
2022/09/14 03:18:35;;;;;;;;;;;17.00;99.90;;;;;;5077258;28;20346;-73
2022/09/14 03:21:08;;;;;;;;;;;17.00;99.90;;;;;;5054559;28;19925;-73
2022/09/14 03:23:44;;;;;;;;;;;16.90;99.90;;;;;;5054799;28;19929;-73
2022/09/14 03:26:17;;;;;;;;;;;17.00;99.90;;;;;;5049947;28;19925;-76
2022/09/14 03:28:43;;;;;;;;;;;17.00;99.90;;;;;;5086286;28;19924;-73
2022/09/14 03:31:16;;;;;;;;;;;17.00;99.90;;;;;;5058100;28;19925;-73
2022/09/14 03:33:55;;;;;;;;;;;17.00;99.90;;;;;;5053856;28;20023;-73
2022/09/14 03:36:27;;;;;;;;;;;17.00;99.90;;;;;;5060428;28;19924;-73
2022/09/14 03:39:00;;;;;;;;;;;17.10;99.90;;;;;;5092758;28;19924;-73
2022/09/14 03:41:32;;;;;;;;;;;17.10;99.90;;;;;;5073476;28;19924;-73
2022/09/14 03:44:03;;;;;;;;;;;17.40;99.90;;;;;;5033902;28;19983;-73
2022/09/14 03:46:30;;;;;;;;;;;17.60;99.90;;;;;;5073332;28;20444;-73
2022/09/14 03:48:56;;;;;;;;;;;17.80;99.90;;;;;;5082946;28;19925;-73
2022/09/14 03:51:28;;;;;;;;;;;18.00;99.90;;;;;;5061610;28;19974;-73
2022/09/14 03:54:00;;;;;;;;;;;18.40;99.90;;;;;;5075293;28;19974;-73
2022/09/14 03:56:26;;;;;;;;;;;18.60;99.90;;;;;;5074820;28;19928;-74
2022/09/14 03:58:58;;;;;;;;;;;18.60;99.90;;;;;;5068901;28;19924;-73
2022/09/14 04:01:31;;;;;;;;;;;18.60;99.90;;;;;;5060894;28;19928;-73
2022/09/14 04:04:03;;;;;;;;;;;18.50;99.90;;;;;;5058480;28;19924;-74
2022/09/14 04:06:34;;;;;;;;;;;18.30;99.90;;;;;;5080598;28;19925;-74
2022/09/14 04:09:06;;;;;;;;;;;18.10;99.90;;;;;;5078879;28;20395;-73
2022/09/14 04:11:37;;;;;;;;;;;17.90;99.90;;;;;;5067976;28;19924;-73
2022/09/14 04:14:04;;;;;;;;;;;17.80;99.90;;;;;;5067635;28;19924;-73
2022/09/14 04:16:36;;;;;;;;;;;17.60;99.90;;;;;;5057130;28;19936;-75
2022/09/14 04:19:07;;;;;;;;;;;17.60;99.90;;;;;;5065167;28;19924;-76
2022/09/14 04:21:39;;;;;;;;;;;17.50;99.90;;;;;;5062787;28;19924;-73
2022/09/14 04:24:12;;;;;;;;;;;17.40;99.90;;;;;;5063041;28;20448;-72
2022/09/14 04:26:44;;;;;;;;;;;17.40;99.90;;;;;;5071735;28;19924;-73
2022/09/14 04:29:11;;;;;;;;;;;17.30;99.90;;;;;;5059778;28;19925;-73
2022/09/14 04:31:38;;;;;;;;;;;17.30;99.90;;;;;;5067695;28;20390;-73
2022/09/14 04:34:11;;;;;;;;;;;17.30;99.90;;;;;;5066179;28;19929;-74
2022/09/14 04:36:38;;;;;;;;;;;17.20;99.90;;;;;;5068854;28;20015;-73
2022/09/14 04:39:11;;;;;;;;;;;17.20;99.90;;;;;;5070472;28;19925;-73
2022/09/14 04:41:42;;;;;;;;;;;17.20;99.90;;;;;;5072858;28;19929;-73
2022/09/14 04:44:14;;;;;;;;;;;17.20;99.90;;;;;;5072508;28;19932;-72
2022/09/14 04:46:46;;;;;;;;;;;17.10;99.90;;;;;;5064277;28;19931;-72
2022/09/14 04:49:17;;;;;;;;;;;17.10;99.90;;;;;;5057085;28;20034;-73
2022/09/14 04:51:49;;;;;;;;;;;17.00;99.90;;;;;;5084119;28;19970;-73
2022/09/14 04:54:21;;;;;;;;;;;17.00;99.90;;;;;;5077539;28;19932;-73
2022/09/14 04:56:52;;;;;;;;;;;17.10;99.90;;;;;;5076116;28;20645;-73
2022/09/14 04:59:24;;;;;;;;;;;17.10;99.90;;;;;;5081094;28;20280;-73
2022/09/14 05:01:55;;;;;;;;;;;17.10;99.90;;;;;;5042441;28;19924;-73
2022/09/14 05:04:27;;;;;;;;;;;17.20;99.90;;;;;;5064364;28;20410;-73
2022/09/14 05:06:55;;;;;;;;;;;17.20;99.90;;;;;;5087131;28;20341;-73
2022/09/14 05:09:21;;;;;;;;;;;17.20;99.90;;;;;;5068471;28;19924;-73
2022/09/14 05:11:53;;;;;;;;;;;17.30;99.90;;;;;;5054404;28;19963;-73
2022/09/14 05:14:19;;;;;;;;;;;17.40;99.90;;;;;;5083412;28;19975;-73
2022/09/14 05:16:51;;;;;;;;;;;17.50;99.90;;;;;;5069597;28;19978;-73
2022/09/14 05:19:22;;;;;;;;;;;17.60;99.90;;;;;;5080463;28;19925;-73
2022/09/14 05:21:54;;;;;;;;;;;17.80;99.90;;;;;;5053133;28;19928;-73
2022/09/14 05:24:26;;;;;;;;;;;17.90;99.90;;;;;;5061086;28;19924;-74
2022/09/14 05:26:53;;;;;;;;;;;18.10;99.90;;;;;;5064157;28;20013;-73
2022/09/14 05:29:24;;;;;;;;;;;18.20;99.90;;;;;;5075948;28;19928;-73
2022/09/14 05:31:51;;;;;;;;;;;18.30;99.90;;;;;;5064506;28;19989;-74
2022/09/14 05:34:22;;;;;;;;;;;18.30;99.90;;;;;;5072741;28;19997;-73
2022/09/14 05:36:54;;;;;;;;;;;18.30;99.90;;;;;;5077878;28;20352;-73
2022/09/14 05:39:21;;;;;;;;;;;18.30;99.90;;;;;;5066021;28;20000;-73
2022/09/14 05:41:52;;;;;;;;;;;18.20;99.90;;;;;;5069744;28;19924;-73
2022/09/14 05:44:24;;;;;;;;;;;18.20;99.90;;;;;;5075576;28;19928;-74
2022/09/14 05:46:56;;;;;;;;;;;18.20;99.90;;;;;;5059326;28;19982;-73
2022/09/14 05:49:27;;;;;;;;;;;18.30;99.90;;;;;;5084248;28;19978;-73
2022/09/14 05:51:59;;;;;;;;;;;18.50;99.90;;;;;;5062505;28;19924;-73
2022/09/14 05:54:31;;;;;;;;;;;18.60;99.90;;;;;;5084147;28;19970;-73
2022/09/14 05:57:02;;;;;;;;;;;18.70;99.90;;;;;;5052230;28;19967;-73
2022/09/14 05:59:34;;;;;;;;;;;18.80;99.90;;;;;;5085477;28;19928;-74
2022/09/14 06:02:05;;;;;;;;;;;18.90;99.90;;;;;;5055156;28;19970;-73
2022/09/14 06:04:32;;;;;;;;;;;19.00;99.90;;;;;;5061029;28;19924;-73
2022/09/14 06:06:59;;;;;;;;;;;19.00;99.90;;;;;;5060523;28;19924;-74
2022/09/14 06:09:30;;;;;;;;;;;19.10;99.90;;;;;;5081260;28;19924;-73
2022/09/14 06:12:02;;;;;;;;;;;19.10;99.90;;;;;;5060639;28;19932;-74
2022/09/14 06:14:28;;;;;;;;;;;19.10;99.90;;;;;;5080652;28;19982;-74
2022/09/14 06:17:01;;;;;;;;;;;19.00;99.90;;;;;;5057031;28;19932;-73
2022/09/14 06:19:32;;;;;;;;;;;19.00;99.90;;;;;;5041204;28;19928;-73
2022/09/14 06:22:04;;;;;;;;;;;19.00;99.90;;;;;;5079073;28;19931;-75
2022/09/14 06:24:36;;;;;;;;;;;19.00;99.90;;;;;;5063854;28;19924;-74
2022/09/14 06:27:08;;;;;;;;;;;19.00;99.90;;;;;;5047141;28;20442;-73
2022/09/14 06:29:39;;;;;;;;;;;19.00;99.90;;;;;;5078710;28;20338;-74
2022/09/14 06:32:11;;;;;;;;;;;18.90;99.90;;;;;;5060226;28;19924;-74
2022/09/14 06:34:42;;;;;;;;;;;18.90;99.90;;;;;;5084833;28;19924;-74
2022/09/14 06:37:14;;;;;;;;;;;18.90;99.90;;;;;;5055608;28;19925;-73
2022/09/14 06:39:46;;;;;;;;;;;18.80;99.90;;;;;;5067316;28;19981;-72
2022/09/14 06:42:17;;;;;;;;;;;18.80;99.90;;;;;;5081614;28;19928;-74
2022/09/14 06:44:50;;;;;;;;;;;18.80;99.90;;;;;;5066574;28;19924;-73
2022/09/14 06:47:17;;;;;;;;;;;18.80;99.90;;;;;;5077920;28;19928;-74
2022/09/14 06:49:49;;;;;;;;;;;18.90;99.90;;;;;;5058196;28;20329;-74
2022/09/14 06:52:21;;;;;;;;;;;19.00;99.90;;;;;;5079823;28;19951;-73
2022/09/14 06:54:53;;;;;;;;;;;19.10;99.90;;;;;;5040516;28;19952;-72
2022/09/14 06:57:24;;;;;;;;;;;19.20;99.90;;;;;;5040855;28;19971;-73
2022/09/14 06:59:56;;;;;;;;;;;19.20;99.90;;;;;;5064717;28;19927;-74
2022/09/14 07:02:22;;;;;;;;;;;19.30;99.90;;;;;;5072661;28;19924;-73
2022/09/14 07:04:54;;;;;;;;;;;19.40;99.90;;;;;;5076279;28;19963;-73
2022/09/14 07:07:21;;;;;;;;;;;19.40;99.90;;;;;;5075893;28;19931;-73
2022/09/14 07:09:47;;;;;;;;;;;19.50;99.90;;;;;;5064343;28;20046;-73
2022/09/14 07:12:19;;;;;;;;;;;19.60;99.90;;;;;;5053850;28;20383;-73
2022/09/14 07:14:50;;;;;;;;;;;19.60;99.90;;;;;;5071643;28;20374;-73
2022/09/14 07:17:18;;;;;;;;;;;19.70;99.90;;;;;;5065790;28;19924;-73
2022/09/14 07:19:50;;;;;;;;;;;19.80;99.90;;;;;;5061659;28;19924;-74
2022/09/14 07:22:16;;;;;;;;;;;19.80;99.90;;;;;;5061434;28;19924;-73
2022/09/14 07:24:48;;;;;;;;;;;19.90;99.90;;;;;;5055175;28;19924;-73
2022/09/14 07:27:19;;;;;;;;;;;19.90;99.90;;;;;;5055768;28;19928;-73
2022/09/14 07:29:51;;;;;;;;;;;20.00;99.90;;;;;;5077597;28;19928;-72
2022/09/14 07:32:23;;;;;;;;;;;20.00;99.90;;;;;;5068931;28;19950;-73
2022/09/14 07:34:49;;;;;;;;;;;20.10;99.90;;;;;;5062540;28;19928;-73
2022/09/14 07:37:21;;;;;;;;;;;20.10;99.90;;;;;;5087405;28;19977;-73
2022/09/14 07:39:53;;;;;;;;;;;20.20;99.90;;;;;;5076836;28;20292;-73
2022/09/14 07:42:24;;;;;;;;;;;20.30;99.90;;;;;;5065327;28;20417;-72
2022/09/14 07:44:56;;;;;;;;;;;20.30;99.90;;;;;;5084927;28;19971;-72
2022/09/14 07:47:22;;;;;;;;;;;20.40;99.90;;;;;;5059762;28;19925;-72
2022/09/14 07:49:54;;;;;;;;;;;20.50;99.90;;;;;;5080901;28;19981;-72
2022/09/14 07:52:26;;;;;;;;;;;20.60;99.90;;;;;;5077803;28;19982;-72
2022/09/14 07:54:57;;;;;;;;;;;20.70;99.90;;;;;;5058433;28;19930;-72
2022/09/14 07:57:29;;;;;;;;;;;20.80;99.90;;;;;;5083912;28;19928;-72
2022/09/14 07:59:57;;;;;;;;;;;20.90;99.90;;;;;;5056431;28;19928;-73
2022/09/14 08:02:37;;;;;;;;;;;21.10;99.90;;;;;;5064885;28;20019;-73
2022/09/14 08:05:04;;;;;;;;;;;21.20;99.90;;;;;;5086098;28;19925;-71
2022/09/14 08:07:35;;;;;;;;;;;21.30;99.90;;;;;;5076670;28;19931;-73
2022/09/14 08:10:07;;;;;;;;;;;21.50;99.90;;;;;;5086198;28;19939;-73
2022/09/14 08:12:38;;;;;;;;;;;21.60;99.90;;;;;;5059460;28;19935;-73
2022/09/14 08:15:10;;;;;;;;;;;21.70;99.90;;;;;;5079845;28;20451;-73
2022/09/14 08:17:41;;;;;;;;;;;21.80;99.90;;;;;;5065912;28;19982;-73
2022/09/14 08:20:14;;;;;;;;;;;21.90;99.90;;;;;;5070548;28;20450;-73
2022/09/14 08:22:44;;;;;;;;;;;22.00;99.90;;;;;;5081544;28;20375;-73
2022/09/14 08:25:15;;;;;;;;;;;22.10;99.90;;;;;;5086835;28;19978;-73
2022/09/14 08:27:47;;;;;;;;;;;22.10;99.90;;;;;;5073126;28;20046;-73
2022/09/14 08:30:18;;;;;;;;;;;22.20;99.90;;;;;;5084938;28;20469;-73
2022/09/14 08:32:50;;;;;;;;;;;22.20;99.90;;;;;;5073855;28;20367;-73
2022/09/14 08:35:21;;;;;;;;;;;22.20;99.90;;;;;;5081123;28;20027;-74
2022/09/14 08:37:53;;;;;;;;;;;22.20;99.90;;;;;;5080938;28;20382;-74
2022/09/14 08:40:24;;;;;;;;;;;22.20;99.90;;;;;;5081311;28;19931;-74
2022/09/14 08:42:57;;;;;;;;;;;22.20;99.90;;;;;;5080308;28;20026;-74
2022/09/14 08:45:29;;;;;;;;;;;22.10;99.90;;;;;;5063309;28;20014;-74
2022/09/14 08:48:01;;;;;;;;;;;22.10;99.90;;;;;;5070079;28;20548;-74
2022/09/14 08:50:33;;;;;;;;;;;22.10;99.90;;;;;;5063597;28;20404;-73
2022/09/14 08:53:06;;;;;;;;;;;22.10;99.90;;;;;;5069493;28;19924;-74
2022/09/14 08:55:40;;;;;;;;;;;22.20;99.90;;;;;;5085343;28;20348;-73
2022/09/14 08:58:30;;;;;;;;;;;22.20;99.90;;;;;;5054381;28;20015;-73
2022/09/14 09:01:15;;;;;;;;;;;22.30;99.90;;;;;;5079414;28;19982;-73
2022/09/14 09:03:53;;;;;;;;;;;22.50;99.90;;;;;;5082598;28;19939;-74
2022/09/14 09:06:32;;;;;;;;;;;22.60;99.90;;;;;;5089617;28;20382;-74
2022/09/14 09:09:11;;;;;;;;;;;22.70;99.90;;;;;;5070831;28;19928;-73
2022/09/14 09:11:45;;;;;;;;;;;22.80;99.90;;;;;;5079732;28;19928;-73
2022/09/14 09:14:20;;;;;;;;;;;22.90;99.90;;;;;;5079147;28;20442;-73
2022/09/14 09:16:53;;;;;;;;;;;22.90;99.90;;;;;;5079193;28;19924;-73
2022/09/14 09:19:45;;;;;;;;;;;23.00;99.90;;;;;;5057630;28;20004;-72
2022/09/14 09:22:19;;;;;;;;;;;23.10;99.90;;;;;;5033122;28;20279;-72
2022/09/14 09:24:52;;;;;;;;;;;23.20;99.90;;;;;;5066344;28;20016;-73
2022/09/14 09:27:26;;;;;;;;;;;23.20;99.90;;;;;;5069722;28;19924;-73
2022/09/14 09:29:58;;;;;;;;;;;23.30;99.90;;;;;;5076624;28;19971;-73
2022/09/14 09:32:27;;;;;;;;;;;23.20;99.90;;;;;;5058884;28;19932;-74
2022/09/14 09:35:25;;;;;;;;;;;23.20;99.90;;;;;;5050524;28;19924;-73
2022/09/14 09:37:59;;;;;;;;;;;23.20;99.90;;;;;;5057405;28;19952;-73
2022/09/14 09:40:36;;;;;;;;;;;23.30;99.90;;;;;;5074481;28;20364;-74
2022/09/14 09:43:09;;;;;;;;;;;23.40;99.90;;;;;;5061859;28;19932;-74
2022/09/14 09:45:48;;;;;;;;;;;23.60;99.90;;;;;;5078697;28;19970;-73
2022/09/14 09:48:41;;;;;;;;;;;23.70;99.90;;;;;;5054468;28;19925;-74
2022/09/14 09:51:25;;;;;;;;;;;23.70;99.90;;;;;;5071119;28;19978;-73
2022/09/14 09:54:06;;;;;;;;;;;23.60;99.90;;;;;;5044677;28;19928;-73
2022/09/14 09:56:39;;;;;;;;;;;23.50;99.90;;;;;;5063137;28;20264;-73
2022/09/14 09:59:29;;;;;;;;;;;23.30;99.90;;;;;;5075136;28;19924;-73
2022/09/14 10:02:19;;;;;;;;;;;23.30;99.90;;;;;;5068101;28;19928;-73
2022/09/14 10:05:02;;;;;;;;;;;23.30;99.90;;;;;;5066017;28;19924;-73
2022/09/14 10:07:52;;;;;;;;;;;23.30;99.90;;;;;;5059121;28;19928;-73
2022/09/14 10:10:38;;;;;;;;;;;23.30;99.90;;;;;;5080251;28;20268;-73
2022/09/14 10:13:24;;;;;;;;;;;23.60;99.90;;;;;;5068667;28;19953;-73
2022/09/14 10:16:11;;;;;;;;;;;23.90;99.90;;;;;;5064394;28;20342;-73
2022/09/14 10:18:44;;;;;;;;;;;24.10;99.90;;;;;;5060707;28;20337;-73
2022/09/14 10:21:17;;;;;;;;;;;24.10;99.90;;;;;;5068346;28;20402;-73
2022/09/14 10:24:14;;;;;;;;;;;24.00;99.90;;;;;;5064077;28;20291;-73
2022/09/14 10:26:45;;;;;;;;;;;24.00;99.90;;;;;;5073068;28;20875;-73
2022/09/14 10:29:27;;;;;;;;;;;24.00;99.90;;;;;;5075798;28;19932;-73
2022/09/14 10:32:03;;;;;;;;;;;24.20;99.90;;;;;;5080912;28;19924;-73
2022/09/14 10:34:35;;;;;;;;;;;24.20;99.90;;;;;;5079501;28;19936;-73
2022/09/14 10:37:12;;;;;;;;;;;24.30;99.90;;;;;;5057039;28;19932;-73
2022/09/14 10:40:04;;;;;;;;;;;24.40;99.90;;;;;;5074831;28;19928;-73
2022/09/14 10:42:36;;;;;;;;;;;24.40;99.90;;;;;;5047474;28;20290;-73
2022/09/14 10:45:26;;;;;;;;;;;24.60;99.90;;;;;;5062334;28;19924;-73
2022/09/14 10:48:19;;;;;;;;;;;24.60;99.90;;;;;;5079857;28;19974;-73
2022/09/14 10:50:53;;;;;;;;;;;24.50;99.90;;;;;;5060724;28;19928;-73
2022/09/14 10:53:33;;;;;;;;;;;24.40;99.90;;;;;;5080019;28;21090;-72
2022/09/14 10:56:18;;;;;;;;;;;24.20;99.90;;;;;;5075534;28;19928;-72
2022/09/14 10:58:56;;;;;;;;;;;24.40;99.90;;;;;;5061595;28;19924;-72
2022/09/14 11:01:33;;;;;;;;;;;24.50;99.90;;;;;;5086426;28;20410;-72
2022/09/14 11:04:23;;;;;;;;;;;24.50;99.90;;;;;;5077795;28;19924;-72
2022/09/14 11:07:08;;;;;;;;;;;24.60;99.90;;;;;;5061890;28;20356;-72
2022/09/14 11:09:50;;;;;;;;;;;24.70;99.90;;;;;;5082097;28;20666;-72
2022/09/14 11:12:21;;;;;;;;;;;24.90;99.90;;;;;;5076749;28;20333;-72
2022/09/14 11:15:09;;;;;;;;;;;24.90;99.90;;;;;;5069435;28;19947;-72
2022/09/14 11:17:44;;;;;;;;;;;25.10;99.90;;;;;;5055538;28;20341;-72
2022/09/14 11:20:31;;;;;;;;;;;25.00;99.90;;;;;;5079130;28;19928;-72
2022/09/14 11:23:02;;;;;;;;;;;25.00;99.90;;;;;;5060028;28;19974;-72
2022/09/14 11:25:53;;;;;;;;;;;25.00;99.90;;;;;;5067732;28;19925;-72
2022/09/14 11:28:28;;;;;;;;;;;25.10;99.90;;;;;;5061988;28;19978;-73
2022/09/14 11:31:03;;;;;;;;;;;25.10;99.90;;;;;;5065460;28;19929;-72
2022/09/14 11:33:37;;;;;;;;;;;25.10;99.90;;;;;;5068868;28;19924;-72
2022/09/14 11:36:15;;;;;;;;;;;25.20;99.90;;;;;;5074204;28;19982;-72
2022/09/14 11:38:50;;;;;;;;;;;25.30;99.90;;;;;;5065189;28;19971;-72
2022/09/14 11:41:40;;;;;;;;;;;25.20;99.90;;;;;;5067837;28;19929;-72
2022/09/14 11:44:13;;;;;;;;;;;25.10;99.90;;;;;;5067841;28;19939;-72
2022/09/14 11:46:47;;;;;;;;;;;24.80;99.90;;;;;;5055301;28;19924;-73
2022/09/14 11:49:21;;;;;;;;;;;24.70;99.90;;;;;;5069844;28;20271;-72
2022/09/14 11:51:55;;;;;;;;;;;24.70;99.90;;;;;;5052330;28;19952;-72
2022/09/14 11:54:27;;;;;;;;;;;24.50;99.90;;;;;;5075694;28;20356;-72
2022/09/14 11:57:00;;;;;;;;;;;24.50;99.90;;;;;;5077404;28;19995;-72
2022/09/14 11:59:38;;;;;;;;;;;24.50;99.90;;;;;;5080687;28;19924;-73
2022/09/14 12:02:21;;;;;;;;;;;24.60;99.90;;;;;;5076145;28;19932;-73
2022/09/14 12:05:03;;;;;;;;;;;24.60;99.90;;;;;;5052850;28;19936;-72
2022/09/14 12:07:44;;;;;;;;;;;24.40;99.90;;;;;;5062928;28;20422;-72
2022/09/14 12:10:19;;;;;;;;;;;24.40;99.90;;;;;;5085332;28;19939;-72
2022/09/14 12:13:17;;;;;;;;;;;24.30;99.90;;;;;;5058783;28;20291;-72
2022/09/14 12:15:59;;;;;;;;;;;24.20;99.90;;;;;;5082354;28;19924;-72
2022/09/14 12:18:31;;;;;;;;;;;24.20;99.90;;;;;;5057872;28;19987;-72
2022/09/14 12:21:06;;;;;;;;;;;24.20;99.90;;;;;;5065421;28;19933;-72
2022/09/14 12:23:38;;;;;;;;;;;24.20;99.90;;;;;;5065822;28;19936;-72
2022/09/14 12:26:09;;;;;;;;;;;24.20;99.90;;;;;;5059743;28;19924;-72
2022/09/14 12:28:36;;;;;;;;;;;24.20;99.90;;;;;;5062993;28;19925;-72
2022/09/14 12:31:19;;;;;;;;;;;24.10;99.90;;;;;;5077632;28;19931;-72
2022/09/14 12:34:09;;;;;;;;;;;24.10;99.90;;;;;;5080407;28;19977;-72
2022/09/14 12:36:41;;;;;;;;;;;24.10;99.90;;;;;;5089349;28;19950;-72
2022/09/14 12:39:26;;;;;;;;;;;24.20;99.90;;;;;;5059042;28;20024;-72
2022/09/14 12:41:59;;;;;;;;;;;24.10;99.90;;;;;;5054456;28;20362;-72
2022/09/14 12:44:32;;;;;;;;;;;24.10;99.90;;;;;;5078229;28;19924;-72
2022/09/14 12:47:23;;;;;;;;;;;24.10;99.90;;;;;;5059457;28;20298;-72
2022/09/14 12:49:59;;;;;;;;;;;24.00;99.90;;;;;;5086549;28;19979;-72
2022/09/14 12:52:37;;;;;;;;;;;24.00;99.90;;;;;;5058514;28;19924;-72
2022/09/14 12:55:15;;;;;;;;;;;24.00;99.90;;;;;;5058647;28;20414;-72
2022/09/14 12:58:02;;;;;;;;;;;23.90;99.90;;;;;;5062948;28;19925;-72
2022/09/14 13:00:46;;;;;;;;;;;24.00;99.90;;;;;;5059838;28;19979;-72
2022/09/14 13:03:18;;;;;;;;;;;24.00;99.90;;;;;;5053392;28;20361;-72
2022/09/14 13:05:49;;;;;;;;;;;24.00;99.90;;;;;;5067111;28;19973;-72
2022/09/14 13:08:23;;;;;;;;;;;24.10;99.90;;;;;;5058747;28;19924;-72
2022/09/14 13:10:54;;;;;;;;;;;24.10;99.90;;;;;;5084873;28;20448;-72
2022/09/14 13:13:29;;;;;;;;;;;24.30;99.90;;;;;;5058066;28;19929;-72
2022/09/14 13:16:02;;;;;;;;;;;24.40;99.90;;;;;;5084131;28;19969;-72
2022/09/14 13:18:35;;;;;;;;;;;24.50;99.90;;;;;;5059269;28;19982;-72
2022/09/14 13:21:03;;;;;;;;;;;24.60;99.90;;;;;;5074623;28;19986;-72
2022/09/14 13:23:36;;;;;;;;;;;24.70;99.90;;;;;;5046179;28;19928;-72
2022/09/14 13:26:14;;;;;;;;;;;24.70;99.90;;;;;;5075882;28;20398;-72
2022/09/14 13:28:47;;;;;;;;;;;24.80;99.90;;;;;;5073557;28;19971;-72
2022/09/14 13:31:33;;;;;;;;;;;24.60;99.90;;;;;;5051652;28;19952;-72
2022/09/14 13:34:05;;;;;;;;;;;24.60;99.90;;;;;;5056847;28;19928;-72
2022/09/14 13:36:34;;;;;;;;;;;24.50;99.90;;;;;;5076899;28;19986;-72
2022/09/14 13:39:09;;;;;;;;;;;24.50;99.90;;;;;;5075221;28;20006;-72
2022/09/14 13:41:41;;;;;;;;;;;24.50;99.90;;;;;;5041684;28;19933;-72
2022/09/14 13:44:13;;;;;;;;;;;24.70;99.90;;;;;;5081423;28;19928;-72
2022/09/14 13:46:45;;;;;;;;;;;24.70;99.90;;;;;;5073920;28;19994;-72
2022/09/14 13:49:16;;;;;;;;;;;24.70;99.90;;;;;;5062336;28;19978;-72
2022/09/14 13:51:48;;;;;;;;;;;24.70;99.90;;;;;;5062352;28;19928;-72
2022/09/14 13:54:22;;;;;;;;;;;24.70;99.90;;;;;;5062687;28;19978;-72
2022/09/14 13:57:10;;;;;;;;;;;24.20;99.90;;;;;;5047642;28;19950;-72
2022/09/14 14:00:01;;;;;;;;;;;23.40;99.90;;;;;;5049806;28;19933;-72
2022/09/14 14:02:31;;;;;;;;;;;23.00;99.90;;;;;;5058960;28;19943;-72
2022/09/14 14:04:58;;;;;;;;;;;22.70;99.90;;;;;;5066398;28;19973;-72
2022/09/14 14:07:31;;;;;;;;;;;22.60;99.90;;;;;;5065237;28;19931;-72
2022/09/14 14:10:03;;;;;;;;;;;22.50;99.90;;;;;;5078137;28;20004;-72
2022/09/14 14:12:36;;;;;;;;;;;22.20;99.90;;;;;;5071820;28;19937;-72
2022/09/14 14:15:11;;;;;;;;;;;21.90;99.90;;;;;;5053879;28;19935;-72
2022/09/14 14:17:42;;;;;;;;;;;21.40;99.90;;;;;;5057513;28;19928;-72
2022/09/14 14:20:36;;;;;;;;;;;20.90;99.90;;;;;;5061436;28;19924;-72
2022/09/14 14:23:09;;;;;;;;;;;20.40;99.90;;;;;;5058424;28;19974;-72
2022/09/14 14:25:42;;;;;;;;;;;20.20;99.90;;;;;;5060309;28;19978;-72
2022/09/14 14:28:14;;;;;;;;;;;20.10;99.90;;;;;;5057217;28;19924;-73
2022/09/14 14:30:41;;;;;;;;;;;20.00;99.90;;;;;;5061907;28;19974;-73
2022/09/14 14:33:13;;;;;;;;;;;20.00;99.90;;;;;;5057344;28;19928;-72
2022/09/14 14:35:40;;;;;;;;;;;19.90;99.90;;;;;;5062883;28;19928;-73
2022/09/14 14:38:12;;;;;;;;;;;19.80;99.90;;;;;;5066187;28;19924;-73
2022/09/14 14:40:44;;;;;;;;;;;19.80;99.90;;;;;;5082758;28;20044;-72
2022/09/14 14:43:20;;;;;;;;;;;19.80;99.90;;;;;;5060544;28;19928;-73
2022/09/14 14:45:53;;;;;;;;;;;19.80;99.90;;;;;;5055925;28;20291;-73
2022/09/14 14:48:26;;;;;;;;;;;19.90;99.90;;;;;;5074974;28;19994;-73
2022/09/14 14:50:58;;;;;;;;;;;19.80;99.90;;;;;;5080561;28;19928;-73
2022/09/14 14:53:29;;;;;;;;;;;19.80;99.90;;;;;;5050824;28;20390;-73
2022/09/14 14:56:01;;;;;;;;;;;19.90;99.90;;;;;;5076873;28;19924;-72